createdAt,value
2018-03-07T00:02:10.016Z,90.60
2018-03-07T00:04:37.092Z,95.65
2018-03-07T00:07:04.227Z,92.35
2018-03-07T00:09:31.196Z,89.90
2018-03-07T00:11:58.293Z,85.22
2018-03-07T00:14:25.333Z,84.32
2018-03-07T00:16:52.319Z,84.03
2018-03-07T00:19:19.280Z,83.65
2018-03-07T00:21:46.283Z,86.15
2018-03-07T00:24:13.180Z,83.78
2018-03-07T00:26:40.152Z,78.12
2018-03-07T00:29:07.374Z,82.82
2018-03-07T00:31:34.417Z,76.12
2018-03-07T00:34:01.454Z,82.62
2018-03-07T00:36:28.416Z,86.22
2018-03-07T00:38:55.389Z,85.43
2018-03-07T00:41:22.325Z,89.10
2018-03-07T00:43:49.250Z,87.68
2018-03-07T00:46:16.296Z,95.30
2018-03-07T00:48:43.270Z,94.68
2018-03-07T00:51:10.233Z,82.85
2018-03-07T00:53:37.438Z,88.18
2018-03-07T00:56:04.729Z,83.28
2018-03-07T00:58:31.711Z,82.68
2018-03-07T01:00:58.600Z,85.18
2018-03-07T01:03:25.646Z,87.43
2018-03-07T01:05:52.725Z,82.03
2018-03-07T01:08:19.707Z,88.65
2018-03-07T01:10:46.813Z,83.72
2018-03-07T01:13:13.745Z,81.53
2018-03-07T01:15:40.693Z,82.88
2018-03-07T01:18:07.691Z,85.15
2018-03-07T01:20:34.729Z,88.43
2018-03-07T01:23:01.753Z,81.00
2018-03-07T01:25:28.793Z,85.95
2018-03-07T01:27:55.853Z,84.53
2018-03-07T01:30:22.840Z,85.85
2018-03-07T01:32:49.823Z,84.18
2018-03-07T01:35:16.971Z,88.03
2018-03-07T01:37:44.104Z,88.80
2018-03-07T01:40:11.198Z,91.68
2018-03-07T01:42:38.258Z,88.28
2018-03-07T01:45:05.275Z,90.45
2018-03-07T01:47:32.331Z,92.22
2018-03-07T01:49:59.455Z,97.20
2018-03-07T01:52:26.306Z,94.47
2018-03-07T01:54:54.399Z,97.35
2018-03-07T01:57:21.344Z,103.57
2018-03-07T01:59:48.385Z,92.65
2018-03-07T02:02:15.279Z,99.60
2018-03-07T02:04:42.264Z,100.00
2018-03-07T02:07:09.193Z,103.25
2018-03-07T02:09:36.220Z,99.68
2018-03-07T02:12:03.183Z,108.18
2018-03-07T02:14:30.333Z,97.60
2018-03-07T02:16:57.340Z,94.15
2018-03-07T02:19:24.314Z,102.62
2018-03-07T02:21:51.268Z,95.82
2018-03-07T02:24:18.130Z,100.78
2018-03-07T02:26:45.072Z,97.53
2018-03-07T02:29:12.143Z,96.18
2018-03-07T02:31:39.186Z,104.53
2018-03-07T02:34:06.127Z,93.57
2018-03-07T02:36:33.163Z,102.32
2018-03-07T02:39:00.125Z,94.28
2018-03-07T02:41:27.096Z,95.85
2018-03-07T02:43:54.074Z,93.12
2018-03-07T02:46:21.058Z,94.80
2018-03-07T02:48:47.939Z,93.07
2018-03-07T02:51:14.850Z,92.40
2018-03-07T02:53:41.959Z,95.00
2018-03-07T02:56:08.838Z,96.80
2018-03-07T02:58:35.879Z,93.30
2018-03-07T03:01:02.842Z,96.32
2018-03-07T03:03:29.925Z,95.07
2018-03-07T03:05:56.922Z,97.57
2018-03-07T03:08:23.911Z,99.28
2018-03-07T03:10:51.064Z,93.28
2018-03-07T03:13:18.052Z,97.93
2018-03-07T03:15:45.187Z,98.35
2018-03-07T03:18:12.171Z,93.45
2018-03-07T03:20:39.166Z,98.00
2018-03-07T03:23:06.232Z,94.53
2018-03-07T03:25:33.229Z,94.05
2018-03-07T03:28:00.215Z,88.20
2018-03-07T03:30:27.271Z,90.82
2018-03-07T03:32:54.348Z,90.80
2018-03-07T03:35:21.363Z,94.07
2018-03-07T03:37:48.276Z,91.15
2018-03-07T03:40:15.199Z,96.72
2018-03-07T03:42:42.174Z,95.12
2018-03-07T03:45:09.215Z,94.25
2018-03-07T03:47:36.312Z,93.62
2018-03-07T03:50:03.445Z,94.80
2018-03-07T03:52:30.424Z,92.10
2018-03-07T03:54:57.544Z,97.95
2018-03-07T03:57:24.552Z,99.25
2018-03-07T03:59:51.645Z,104.78
2018-03-07T04:02:18.626Z,102.68
2018-03-07T04:04:45.756Z,98.03
2018-03-07T04:07:12.695Z,91.37
2018-03-07T04:09:39.806Z,96.82
2018-03-07T04:12:06.939Z,94.00
2018-03-07T04:14:34.039Z,101.38
2018-03-07T04:17:01.015Z,107.40
2018-03-07T04:19:28.133Z,104.35
2018-03-07T04:21:55.103Z,108.65
2018-03-07T04:24:21.992Z,105.85
2018-03-07T04:26:48.978Z,105.90
2018-03-07T04:29:16.058Z,105.72
2018-03-07T04:31:42.962Z,107.50
2018-03-07T04:34:09.903Z,113.68
2018-03-07T04:36:36.959Z,118.50
2018-03-07T04:39:03.994Z,113.90
2018-03-07T04:41:31.024Z,112.25
2018-03-07T04:43:57.895Z,111.32
2018-03-07T04:46:24.802Z,115.12
2018-03-07T04:48:51.729Z,113.22
2018-03-07T04:51:18.652Z,120.18
2018-03-07T04:53:45.605Z,120.13
2018-03-07T04:56:12.556Z,121.07
2018-03-07T04:58:39.573Z,118.20
2018-03-07T05:01:06.515Z,117.45
2018-03-07T05:03:33.650Z,118.43
2018-03-07T05:06:00.567Z,116.07
2018-03-07T05:08:27.657Z,109.95
2018-03-07T05:10:54.609Z,112.62
2018-03-07T05:13:21.521Z,106.82
2018-03-07T05:15:48.546Z,114.15
2018-03-07T05:18:15.386Z,111.75
2018-03-07T05:20:42.472Z,108.43
2018-03-07T05:23:09.463Z,119.22
2018-03-07T05:25:36.499Z,111.75
2018-03-07T05:28:03.388Z,115.40
2018-03-07T05:30:30.397Z,110.97
2018-03-07T05:32:57.522Z,115.15
2018-03-07T05:35:24.538Z,115.57
2018-03-07T05:37:51.481Z,110.85
2018-03-07T05:40:18.564Z,117.03
2018-03-07T05:42:45.440Z,124.05
2018-03-07T05:45:12.557Z,123.35
2018-03-07T05:47:39.599Z,128.30
2018-03-07T05:50:06.715Z,126.20
2018-03-07T05:52:33.709Z,122.78
2018-03-07T05:55:00.767Z,131.70
2018-03-07T05:57:27.945Z,126.05
2018-03-07T05:59:55.276Z,123.53
2018-03-07T06:02:22.230Z,118.35
2018-03-07T06:04:49.313Z,109.70
2018-03-07T06:07:16.195Z,117.82
2018-03-07T06:09:43.367Z,105.25
2018-03-07T06:12:10.315Z,98.95
2018-03-07T06:14:37.487Z,111.07
2018-03-07T06:17:04.435Z,107.05
2018-03-07T06:19:31.435Z,117.97
2018-03-07T06:21:58.390Z,108.60
2018-03-07T06:24:25.546Z,100.40
2018-03-07T06:26:52.479Z,98.00
2018-03-07T06:29:19.423Z,105.12
2018-03-07T06:31:46.325Z,99.05
2018-03-07T06:34:13.262Z,96.97
2018-03-07T06:36:40.230Z,95.97
2018-03-07T06:39:07.248Z,100.78
2018-03-07T06:41:34.189Z,95.65
2018-03-07T06:44:01.196Z,94.47
2018-03-07T06:46:28.101Z,94.93
2018-03-07T06:48:55.029Z,93.87
2018-03-07T06:51:22.046Z,97.07
2018-03-07T06:53:48.895Z,98.95
2018-03-07T06:56:15.806Z,96.20
2018-03-07T06:58:42.736Z,93.68
2018-03-07T07:01:09.668Z,99.37
2018-03-07T07:03:36.629Z,92.35
2018-03-07T07:06:03.754Z,95.28
2018-03-07T07:08:30.746Z,90.53
2018-03-07T07:10:57.732Z,96.60
2018-03-07T07:13:24.745Z,89.50
2018-03-07T07:15:51.664Z,95.93
2018-03-07T07:18:18.629Z,90.47
2018-03-07T07:20:45.704Z,94.82
2018-03-07T07:23:12.611Z,94.72
2018-03-07T07:25:39.484Z,85.53
2018-03-07T07:28:07.878Z,94.25
2018-03-07T07:30:34.947Z,95.07
2018-03-07T07:33:01.844Z,96.53
2018-03-07T07:35:28.812Z,103.65
2018-03-07T07:37:55.768Z,90.90
2018-03-07T07:40:22.709Z,96.25
2018-03-07T07:42:50.804Z,89.93
2018-03-07T07:45:17.854Z,94.95
2018-03-07T07:47:44.727Z,139.88
2018-03-07T07:50:11.885Z,140.73
2018-03-07T07:52:38.816Z,142.65
2018-03-07T07:55:05.820Z,106.30
2018-03-07T07:57:32.759Z,96.85
2018-03-07T07:59:59.832Z,90.47
2018-03-07T08:02:26.778Z,102.47
2018-03-07T08:04:53.870Z,100.12
2018-03-07T08:07:20.808Z,103.05
2018-03-07T08:09:47.758Z,93.18
2018-03-07T08:12:14.634Z,95.72
2018-03-07T08:14:41.605Z,95.60
2018-03-07T08:17:08.538Z,88.37
2018-03-07T08:19:35.523Z,88.90
2018-03-07T08:22:02.478Z,89.20
2018-03-07T08:24:29.365Z,90.07
2018-03-07T08:26:56.319Z,87.13
2018-03-07T08:29:23.248Z,83.57
2018-03-07T08:31:50.220Z,88.07
2018-03-07T08:34:17.338Z,89.03
2018-03-07T08:36:44.203Z,83.83
2018-03-07T08:39:11.175Z,83.33
2018-03-07T08:41:38.064Z,82.50
2018-03-07T08:44:05.048Z,87.60
2018-03-07T08:46:32.032Z,90.73
2018-03-07T08:48:58.908Z,88.03
2018-03-07T08:51:26.457Z,82.93
2018-03-07T08:53:53.769Z,83.23
2018-03-07T08:56:20.722Z,77.80
2018-03-07T08:58:47.617Z,81.10
2018-03-07T09:01:14.539Z,85.70
2018-03-07T09:03:41.400Z,79.90
2018-03-07T09:06:08.385Z,83.37
2018-03-07T09:08:35.328Z,87.90
2018-03-07T09:11:02.306Z,80.23
2018-03-07T09:13:29.221Z,81.23
2018-03-07T09:15:56.343Z,79.13
2018-03-07T09:18:23.262Z,79.37
2018-03-07T09:20:50.315Z,84.73
2018-03-07T09:23:17.210Z,77.70
2018-03-07T09:25:44.099Z,88.93
2018-03-07T09:28:10.992Z,106.47
2018-03-07T09:30:37.983Z,90.20
2018-03-07T09:33:05.059Z,78.53
2018-03-07T09:35:32.033Z,82.43
2018-03-07T09:37:58.955Z,98.23
2018-03-07T09:40:25.990Z,113.80
2018-03-07T09:42:52.968Z,107.43
2018-03-07T09:45:20.012Z,91.10
2018-03-07T09:47:46.894Z,84.17
2018-03-07T09:50:13.916Z,71.80
2018-03-07T09:52:40.822Z,64.27
2018-03-07T09:55:07.746Z,63.77
2018-03-07T09:57:34.646Z,65.53
2018-03-07T10:00:01.700Z,61.90
2018-03-07T10:02:28.627Z,67.03
2018-03-07T10:04:55.683Z,71.13
2018-03-07T10:07:22.544Z,68.23
2018-03-07T10:09:49.489Z,59.40
2018-03-07T10:12:16.467Z,62.73
2018-03-07T10:14:43.433Z,63.57
2018-03-07T10:17:10.453Z,63.87
2018-03-07T10:19:37.311Z,62.67
2018-03-07T10:22:04.160Z,62.87
2018-03-07T10:24:31.107Z,55.83
2018-03-07T10:26:58.071Z,53.77
2018-03-07T10:29:25.087Z,59.47
2018-03-07T10:31:51.985Z,54.33
2018-03-07T10:34:18.918Z,59.83
2018-03-07T10:36:45.824Z,61.90
2018-03-07T10:39:12.728Z,63.97
2018-03-07T10:41:39.729Z,57.93
2018-03-07T10:44:06.618Z,61.07
2018-03-07T10:46:33.620Z,59.33
2018-03-07T10:49:00.582Z,50.80
2018-03-07T10:51:27.457Z,36.23
2018-03-07T10:53:54.394Z,35.97
2018-03-07T10:56:21.221Z,32.50
2018-03-07T10:58:48.089Z,28.83
2018-03-07T11:01:15.004Z,27.93
2018-03-07T11:03:41.853Z,20.90
2018-03-07T11:06:08.797Z,46.50
2018-03-07T11:08:35.799Z,37.90
2018-03-07T11:11:02.682Z,30.93
2018-03-07T11:13:29.581Z,28.63
2018-03-07T11:15:56.425Z,25.00
2018-03-07T11:18:23.322Z,22.83
2018-03-07T11:20:50.327Z,22.97
2018-03-07T11:23:17.259Z,23.13
2018-03-07T11:25:44.464Z,28.30
2018-03-07T11:28:11.344Z,33.77
2018-03-07T11:30:38.312Z,25.33
2018-03-07T11:33:05.208Z,26.27
2018-03-07T11:35:32.310Z,24.13
2018-03-07T11:37:59.283Z,20.33
2018-03-07T11:40:26.222Z,21.80
2018-03-07T11:42:53.058Z,19.60
2018-03-07T11:45:20.034Z,19.23
2018-03-07T11:47:46.950Z,16.97
2018-03-07T11:50:13.912Z,14.53
2018-03-07T11:52:40.787Z,15.43
2018-03-07T11:55:07.842Z,14.83
2018-03-07T11:57:34.808Z,14.53
2018-03-07T12:00:01.896Z,15.80
2018-03-07T12:02:28.845Z,16.20
2018-03-07T12:04:55.877Z,17.83
2018-03-07T12:07:22.873Z,17.93
2018-03-07T12:09:49.920Z,17.27
2018-03-07T12:12:16.861Z,18.90
2018-03-07T12:14:43.844Z,17.10
2018-03-07T12:17:10.740Z,18.13
2018-03-07T12:19:37.648Z,18.80
2018-03-07T12:22:04.585Z,20.60
2018-03-07T12:24:31.580Z,19.87
2018-03-07T12:26:58.467Z,20.40
2018-03-07T12:29:25.289Z,16.03
2018-03-07T12:31:52.218Z,18.77
2018-03-07T12:34:19.152Z,16.40
2018-03-07T12:36:46.038Z,20.57
2018-03-07T12:39:12.954Z,36.97
2018-03-07T12:41:39.950Z,36.23
2018-03-07T12:44:06.859Z,22.17
2018-03-07T12:46:33.871Z,49.83
2018-03-07T12:49:00.802Z,24.33
2018-03-07T12:51:27.747Z,22.90
2018-03-07T12:53:54.678Z,27.53
2018-03-07T12:56:21.594Z,31.13
2018-03-07T12:58:48.465Z,23.40
2018-03-07T13:01:15.769Z,29.67
2018-03-07T13:03:42.680Z,15.50
2018-03-07T13:06:09.591Z,17.43
2018-03-07T13:08:37.370Z,25.33
2018-03-07T13:11:04.285Z,12.60
2018-03-07T13:13:31.174Z,12.50
2018-03-07T13:15:58.269Z,9.57
2018-03-07T13:18:25.194Z,10.07
2018-03-07T13:20:52.144Z,11.70
2018-03-07T13:23:19.081Z,13.00
2018-03-07T13:25:46.077Z,14.53
2018-03-07T13:28:12.947Z,9.70
2018-03-07T13:30:39.825Z,11.10
2018-03-07T13:33:06.881Z,9.17
2018-03-07T13:35:33.949Z,10.00
2018-03-07T13:38:00.836Z,11.03
2018-03-07T13:40:27.962Z,10.27
2018-03-07T13:42:55.047Z,11.07
2018-03-07T13:45:22.179Z,12.97
2018-03-07T13:47:49.034Z,19.40
2018-03-07T13:50:16.073Z,9.67
2018-03-07T13:52:43.039Z,12.70
2018-03-07T13:55:10.016Z,24.47
2018-03-07T13:57:37.035Z,33.37
2018-03-07T14:00:04.054Z,18.90
2018-03-07T14:02:30.960Z,11.97
2018-03-07T14:04:58.025Z,10.17
2018-03-07T14:07:24.878Z,12.27
2018-03-07T14:09:51.872Z,10.43
2018-03-07T14:12:18.765Z,9.53
2018-03-07T14:14:45.994Z,9.93
2018-03-07T14:17:12.944Z,9.30
2018-03-07T14:19:39.910Z,12.87
2018-03-07T14:22:06.884Z,11.53
2018-03-07T14:24:33.878Z,11.13
2018-03-07T14:27:00.812Z,9.93
2018-03-07T14:29:27.742Z,11.67
2018-03-07T14:31:54.654Z,12.47
2018-03-07T14:34:29.147Z,14.90
2018-03-07T14:36:56.137Z,11.17
2018-03-07T14:39:23.192Z,12.50
2018-03-07T14:41:50.169Z,12.80
2018-03-07T14:44:17.137Z,12.40
2018-03-07T14:46:44.137Z,12.03
2018-03-07T14:49:11.043Z,12.53
2018-03-07T14:51:38.185Z,12.83
2018-03-07T14:54:06.618Z,12.23
2018-03-07T14:56:33.883Z,15.73
2018-03-07T14:59:00.905Z,13.90
2018-03-07T15:01:28.108Z,11.73
2018-03-07T15:03:55.189Z,12.10
2018-03-07T15:06:22.327Z,13.50
2018-03-07T15:08:49.235Z,13.97
2018-03-07T15:11:16.144Z,14.00
2018-03-07T15:13:43.036Z,15.63
2018-03-07T15:16:09.943Z,15.70
2018-03-07T15:18:36.885Z,17.47
2018-03-07T15:21:03.913Z,16.20
2018-03-07T15:23:30.974Z,14.43
2018-03-07T15:25:58.248Z,15.00
2018-03-07T15:28:25.400Z,16.30
2018-03-07T15:30:52.870Z,15.47
2018-03-07T15:33:19.723Z,13.73
2018-03-07T15:35:46.719Z,13.53
2018-03-07T15:38:13.737Z,17.23
2018-03-07T15:40:40.697Z,16.60
2018-03-07T15:43:07.835Z,17.93
2018-03-07T15:45:34.937Z,15.43
2018-03-07T15:48:01.807Z,16.50
2018-03-07T15:50:29.047Z,16.17
2018-03-07T15:52:56.044Z,16.83
2018-03-07T15:55:23.122Z,16.07
2018-03-07T15:57:50.103Z,16.63
2018-03-07T16:00:17.354Z,17.63
2018-03-07T16:02:44.271Z,19.43
2018-03-07T16:05:11.336Z,18.50
2018-03-07T16:07:38.312Z,18.63
2018-03-07T16:10:07.114Z,20.13
2018-03-07T16:12:34.156Z,20.30
2018-03-07T16:15:01.106Z,18.40
2018-03-07T16:17:28.061Z,16.40
2018-03-07T16:19:55.087Z,19.87
2018-03-07T16:22:22.064Z,19.90
2018-03-07T16:24:49.035Z,17.90
2018-03-07T16:27:16.001Z,20.87
2018-03-07T16:29:43.223Z,18.77
2018-03-07T16:32:10.207Z,20.17
2018-03-07T16:34:37.160Z,20.83
2018-03-07T16:37:04.182Z,20.37
2018-03-07T16:39:31.214Z,18.93
2018-03-07T16:41:58.193Z,23.37
2018-03-07T16:44:25.142Z,22.23
2018-03-07T16:46:52.148Z,19.60
2018-03-07T16:49:19.117Z,23.07
2018-03-07T16:51:46.591Z,22.43
2018-03-07T16:54:13.529Z,17.27
2018-03-07T16:56:40.710Z,17.73
2018-03-07T16:59:08.821Z,19.37
2018-03-07T17:01:36.775Z,18.03
2018-03-07T17:04:04.224Z,26.10
2018-03-07T17:06:33.472Z,41.23
2018-03-07T17:09:01.300Z,60.90
2018-03-07T17:11:28.391Z,27.20
2018-03-07T17:13:56.458Z,22.87
2018-03-07T17:16:23.499Z,27.17
2018-03-07T17:18:50.516Z,22.50
2018-03-07T17:21:18.453Z,21.13
2018-03-07T17:23:46.068Z,21.53
2018-03-07T17:26:13.674Z,26.47
2018-03-07T17:28:42.043Z,24.57
2018-03-07T17:31:09.091Z,23.07
2018-03-07T17:33:37.054Z,28.63
2018-03-07T17:36:04.698Z,26.90
2018-03-07T17:38:32.392Z,23.17
2018-03-07T17:40:59.588Z,27.47
2018-03-07T17:43:27.232Z,29.57
2018-03-07T17:45:54.451Z,27.70
2018-03-07T17:48:22.021Z,28.40
2018-03-07T17:50:49.090Z,28.27
2018-03-07T17:53:16.800Z,28.10
2018-03-07T17:55:43.847Z,28.80
2018-03-07T17:58:10.809Z,26.97
2018-03-07T18:00:37.782Z,25.70
2018-03-07T18:03:05.258Z,29.83
2018-03-07T18:05:32.141Z,25.30
2018-03-07T18:07:59.237Z,28.07
2018-03-07T18:10:26.631Z,28.00
2018-03-07T18:12:53.699Z,28.67
2018-03-07T18:15:20.627Z,29.00
2018-03-07T18:17:47.572Z,30.47
2018-03-07T18:20:14.695Z,29.50
2018-03-07T18:22:41.939Z,30.13
2018-03-07T18:25:08.899Z,30.53
2018-03-07T18:27:35.946Z,30.23
2018-03-07T18:30:02.966Z,33.77
2018-03-07T18:32:30.001Z,32.13
2018-03-07T18:34:57.130Z,33.13
2018-03-07T18:37:24.061Z,43.20
2018-03-07T18:39:51.114Z,38.77
2018-03-07T18:42:18.047Z,34.33
2018-03-07T18:44:45.178Z,33.47
2018-03-07T18:47:12.078Z,35.77
2018-03-07T18:49:39.357Z,26.03
2018-03-07T18:52:06.367Z,28.63
2018-03-07T18:54:34.422Z,31.57
2018-03-07T18:57:01.448Z,25.93
2018-03-07T18:59:28.492Z,28.00
2018-03-07T19:01:55.416Z,27.73
2018-03-07T19:04:22.406Z,29.93
2018-03-07T19:06:49.387Z,27.07
2018-03-07T19:09:16.283Z,27.03
2018-03-07T19:11:43.177Z,25.60
2018-03-07T19:14:10.269Z,25.57
2018-03-07T19:16:37.557Z,27.73
2018-03-07T19:19:04.603Z,25.57
2018-03-07T19:21:31.660Z,24.00
2018-03-07T19:23:58.629Z,25.37
2018-03-07T19:26:25.989Z,25.40
2018-03-07T19:28:53.281Z,26.47
2018-03-07T19:31:21.038Z,24.50
2018-03-07T19:33:48.226Z,25.87
2018-03-07T19:36:15.190Z,25.80
2018-03-07T19:38:42.533Z,23.30
2018-03-07T19:41:10.152Z,25.57
2018-03-07T19:43:37.145Z,22.50
2018-03-07T19:46:04.238Z,22.13
2018-03-07T19:48:32.540Z,29.97
2018-03-07T19:50:59.741Z,32.27
2018-03-07T19:53:28.059Z,30.47
2018-03-07T19:55:55.627Z,30.70
2018-03-07T19:58:22.688Z,37.17
2018-03-07T20:00:49.667Z,31.47
2018-03-07T20:03:16.762Z,38.73
2018-03-07T20:05:43.888Z,31.17
2018-03-07T20:08:10.837Z,31.57
2018-03-07T20:10:37.826Z,32.63
2018-03-07T20:13:05.085Z,31.70
2018-03-07T20:15:32.190Z,30.27
2018-03-07T20:17:59.707Z,27.77
2018-03-07T20:20:28.294Z,28.30
2018-03-07T20:22:55.658Z,24.50
2018-03-07T20:25:23.322Z,30.40
2018-03-07T20:27:50.802Z,26.03
2018-03-07T20:30:17.741Z,24.70
2018-03-07T20:32:44.870Z,22.47
2018-03-07T20:35:13.351Z,23.80
2018-03-07T20:37:40.578Z,20.50
2018-03-07T20:40:07.976Z,22.70
2018-03-07T20:42:35.496Z,20.07
2018-03-07T20:45:02.555Z,16.67
2018-03-07T20:47:29.552Z,20.77
2018-03-07T20:49:56.733Z,20.70
2018-03-07T20:52:24.061Z,17.50
2018-03-07T20:54:51.349Z,18.67
2018-03-07T20:57:18.342Z,16.40
2018-03-07T20:59:45.654Z,15.40
2018-03-07T21:02:12.749Z,15.43
2018-03-07T21:04:39.686Z,16.53
2018-03-07T21:07:06.570Z,14.27
2018-03-07T21:09:33.572Z,20.40
2018-03-07T21:12:00.474Z,17.47
2018-03-07T21:14:27.410Z,18.13
2018-03-07T21:16:54.259Z,16.73
2018-03-07T21:19:21.161Z,18.80
2018-03-07T21:21:48.047Z,16.37
2018-03-07T21:24:14.948Z,19.17
2018-03-07T21:26:41.925Z,17.53
2018-03-07T21:29:08.943Z,21.17
2018-03-07T21:31:35.850Z,19.77
2018-03-07T21:34:02.854Z,22.10
2018-03-07T21:36:29.678Z,25.77
2018-03-07T21:38:56.659Z,26.00
2018-03-07T21:41:23.655Z,26.03
2018-03-07T21:43:50.592Z,27.27
2018-03-07T21:46:17.536Z,31.03
2018-03-07T21:48:44.438Z,25.30
2018-03-07T21:51:11.373Z,31.43
2018-03-07T21:53:38.399Z,30.23
2018-03-07T21:56:05.688Z,34.33
2018-03-07T21:58:32.978Z,37.23
2018-03-07T22:00:59.976Z,36.70
2018-03-07T22:03:27.179Z,38.63
2018-03-07T22:05:54.095Z,38.33
2018-03-07T22:08:20.996Z,41.27
2018-03-07T22:10:48.086Z,40.93
2018-03-07T22:13:15.060Z,35.23
2018-03-07T22:15:42.114Z,40.33
2018-03-07T22:18:09.129Z,33.03
2018-03-07T22:20:36.188Z,33.33
2018-03-07T22:23:03.193Z,34.63
2018-03-07T22:25:30.145Z,35.07
2018-03-07T22:27:57.087Z,32.80
2018-03-07T22:30:24.235Z,32.33
2018-03-07T22:32:51.186Z,33.27
2018-03-07T22:35:18.248Z,30.13
2018-03-07T22:37:45.246Z,32.17
2018-03-07T22:40:12.278Z,32.73
2018-03-07T22:42:39.423Z,32.60
2018-03-07T22:45:06.378Z,32.10
2018-03-07T22:47:33.282Z,32.37
2018-03-07T22:50:00.236Z,32.63
2018-03-07T22:52:27.177Z,32.73
2018-03-07T22:54:54.071Z,33.53
2018-03-07T22:57:21.034Z,31.57
2018-03-07T22:59:48.059Z,32.90
2018-03-07T23:02:15.005Z,35.10
2018-03-07T23:04:42.232Z,32.30
2018-03-07T23:07:09.163Z,32.77
2018-03-07T23:09:36.031Z,30.57
2018-03-07T23:12:03.044Z,29.97
2018-03-07T23:14:30.103Z,33.13
2018-03-07T23:16:56.984Z,31.47
2018-03-07T23:19:24.020Z,29.03
2018-03-07T23:21:50.980Z,33.10
2018-03-07T23:24:17.902Z,25.87
2018-03-07T23:26:44.801Z,22.83
2018-03-07T23:29:11.776Z,24.57
2018-03-07T23:31:38.782Z,20.80
2018-03-07T23:34:05.803Z,24.27
2018-03-07T23:36:32.711Z,22.03
2018-03-07T23:38:59.650Z,18.27
2018-03-07T23:41:26.634Z,18.77
2018-03-07T23:43:53.597Z,15.43
2018-03-07T23:46:20.604Z,16.07
2018-03-07T23:48:47.612Z,15.23
2018-03-07T23:51:14.467Z,14.50
2018-03-07T23:53:41.343Z,14.73
2018-03-07T23:56:08.353Z,24.00
2018-03-07T23:58:35.469Z,17.67
